Portada
METAR-TAF:

METAR-TAF

Aeroports :

Adıyaman, Turquia

latitud: 37-43-54N, longitud: 38-28-08E, altitud: 675 m

Observació

L'informe es va fer fa 1 hora i 5 minuts, a les 03:50 UTC
Vent 4 kt del Est/Sud-Est
Temperatura 12°C
Humitat 94%
Pressió 1011 hPa
Visibilitat 10 km o més
sense núvols per sota de 1500 mi sense presència de cumulonimbus.

METAR: LTCP 200350Z 11004KT CAVOK 12/11 Q1011

Hora: 07:55 (04:55 UTC)

Pronòstic

L'informe es va fer fa 3 hores i 15 minuts, a les 01:40 UTC
Pronòstic vàlid del 20 a les 03 UTC al 20 a les 12 UTC
Vent 7 kt del Sud/Sud-Oest
Visibilitat 10 km o més
Escasses núvols a una alçada de 4000 ft
Núvols disperses a una alçada de 10000 ft

TAF: LTCP 200140Z 2003/2012 21007KT 9999 FEW040 SCT100

Observacions i pronòstics meteorològics de més de 4000 aeroports (METAR i TAF).

Les estacions disponibles són els punts grocs i vermells al mapa.

Posi el ratolí al punt desitjat per veure el nom de l'estació.

Feu clic per veure les observacions i els pronòstics meteorològics.

Per canviar el mapa: feu clic els botons verds amb una creu de color negre per apropar; al botó verd amb un guió per allunyar la imatge; o en les fletxes verdes per a mapes adjacents.


METAR-TAF: